Terminal Aerodrome Forecast
Issued by NWS

Home | Current Version | Previous Version | Text Only | Print | Product List | Glossary On
Versions: 1 2 3 4 5 6 7 8 9 10 11 12 13 14 15 16 17 18 19
000
FTUS44 KLZK 262300
TAFLLQ
TAF
KLLQ 262320Z 2700/2724 13009KT P6SM VCSH FEW020 OVC045
      TEMPO 2700/2704 -RA
     FM270400 13007KT P6SM VCSH SCT012 BKN025 WS020/19045KT
      TEMPO 2708/2712 4SM -RADZ BKN008 OVC015
     FM271200 15005KT 5SM -RADZ SCT005 OVC008 WS020/19045KT
      TEMPO 2712/2716 2SM RA BR OVC005
     FM272100 33007KT 4SM -DZ BR VCSH BKN005 OVC015=

USA.gov is the U.S. government's official web portal to all federal, state and local government web resources and services.